Portada
METAR-TAF:

METAR-TAF

Aeroports :

Base aèria

Solenzara, França

latitud: 41-55N, longitud: 009-24E, altitud: 8 m

Observació

L'informe es va fer fa 22 minuts, a les 16:30 UTC
Vent 8 kt del Nord/Nord-Oest
Temperatura 12°C
Humitat 58%
Pressió 1016 hPa
Visibilitat 10 km o més
sense núvols per sota de 1500 mi sense presència de cumulonimbus.

METAR: LFKS 101630Z AUTO 34008KT CAVOK 12/04 Q1016

Hora: 17:52 (16:52 UTC)

Pronòstic

L'informe es va fer fa 2 hores i 52 minuts, a les 14:00 UTC
Pronòstic vàlid del 10 a les 15 UTC al 11 a les 15 UTC
Vent 10 kt del Nord
Visibilitat 10 km o més
sense núvols per sota de 1500 mi sense presència de cumulonimbus.
Temporalment
l' 10 a les 15 UTC al 10 a les 24 UTC
Vent 15 kt del Nord amb ràfegues de 25 kt

TAF: LFKS 101400Z 1015/1115 35010KT CAVOK TEMPO 1015/1024 35015G25KT

Observacions i pronòstics meteorològics de més de 4000 aeroports (METAR i TAF).

Les estacions disponibles són els punts grocs i vermells al mapa.

Posi el ratolí al punt desitjat per veure el nom de l'estació.

Feu clic per veure les observacions i els pronòstics meteorològics.

Per canviar el mapa: feu clic els botons verds amb una creu de color negre per apropar; al botó verd amb un guió per allunyar la imatge; o en les fletxes verdes per a mapes adjacents.


METAR-TAF: